Time;durP1;ratioP1;P1;durP2;ratioP2;P2;SDS_P1;SDS_P2;PMS_P1;PMS_P2;Temp;Humidity;BMP_temperature;BMP_pressure;BME280_temperature;BME280_humidity;BME280_pressure;Samples;Min_cycle;Max_cycle;Signal;HPM_P1;HPM_P2
2022/01/01 00:02:19;;;;;;;16.45;10.18;;;;;;;;;;5063653;28;20480;-59
2022/01/01 00:04:45;;;;;;;17.13;10.40;;;;;;;;;;5063879;28;20938;-56
2022/01/01 00:07:10;;;;;;;15.70;10.45;;;;;;;;;;5063066;28;20479;-59
2022/01/01 00:09:38;;;;;;;16.13;9.57;;;;;;;;;;5062001;28;20024;-60
2022/01/01 00:12:04;;;;;;;17.95;10.63;;;;;;;;;;5061550;28;20238;-59
2022/01/01 00:14:31;;;;;;;16.92;10.13;;;;;;;;;;5063294;28;20026;-60
2022/01/01 00:16:56;;;;;;;16.20;9.90;;;;;;;;;;5061274;28;20024;-58
2022/01/01 00:19:22;;;;;;;14.88;10.02;;;;;;;;;;5065606;28;20028;-57
2022/01/01 00:21:47;;;;;;;14.23;8.98;;;;;;;;;;5046075;28;20020;-58
2022/01/01 00:24:13;;;;;;;17.35;9.95;;;;;;;;;;5062325;28;20782;-60
2022/01/01 00:26:38;;;;;;;16.10;10.13;;;;;;;;;;5064058;28;20068;-57
2022/01/01 00:29:04;;;;;;;16.60;9.45;;;;;;;;;;5060312;28;20523;-53
2022/01/01 00:31:30;;;;;;;17.00;10.98;;;;;;;;;;5065042;28;20035;-56
2022/01/01 00:33:55;;;;;;;17.48;10.57;;;;;;;;;;5062559;28;20024;-59
2022/01/01 00:36:21;;;;;;;18.52;10.57;;;;;;;;;;5063916;28;20139;-59
2022/01/01 00:38:46;;;;;;;17.27;10.10;;;;;;;;;;5063707;28;20032;-60
2022/01/01 00:41:12;;;;;;;18.00;10.95;;;;;;;;;;5063916;28;20025;-59
2022/01/01 00:43:38;;;;;;;20.90;10.98;;;;;;;;;;5061335;28;20376;-58
2022/01/01 00:46:03;;;;;;;17.23;10.23;;;;;;;;;;5063748;28;20036;-57
2022/01/01 00:48:28;;;;;;;14.10;9.10;;;;;;;;;;5061612;28;20425;-56
2022/01/01 00:50:54;;;;;;;16.02;9.70;;;;;;;;;;5065473;28;20036;-59
2022/01/01 00:53:19;;;;;;;15.73;9.20;;;;;;;;;;5060175;28;20037;-58
2022/01/01 00:55:44;;;;;;;14.57;8.65;;;;;;;;;;5063513;28;20484;-56
2022/01/01 00:58:10;;;;;;;15.30;9.05;;;;;;;;;;5060485;28;20031;-60
2022/01/01 01:00:36;;;;;;;13.98;9.10;;;;;;;;;;5060903;28;20020;-58
2022/01/01 01:03:10;;;;;;;15.00;8.65;;;;;;;;;;5064253;28;20024;-57
2022/01/01 01:05:38;;;;;;;13.60;8.45;;;;;;;;;;5064123;28;20028;-56
2022/01/01 01:08:04;;;;;;;12.18;7.82;;;;;;;;;;5061293;28;20573;-56
2022/01/01 01:10:30;;;;;;;14.85;8.00;;;;;;;;;;5081072;28;20020;-58
2022/01/01 01:12:55;;;;;;;14.18;7.85;;;;;;;;;;5064964;28;20033;-58
2022/01/01 01:15:20;;;;;;;11.25;7.32;;;;;;;;;;5065981;28;20059;-60
2022/01/01 01:17:48;;;;;;;12.43;7.45;;;;;;;;;;5064280;28;20741;-60
2022/01/01 01:20:14;;;;;;;12.27;7.53;;;;;;;;;;5066669;28;21695;-58
2022/01/01 01:22:40;;;;;;;13.88;7.72;;;;;;;;;;5048465;28;20423;-58
2022/01/01 01:25:06;;;;;;;12.57;7.78;;;;;;;;;;5065850;28;20031;-58
2022/01/01 01:27:34;;;;;;;14.07;7.60;;;;;;;;;;5066026;28;20120;-58
2022/01/01 01:30:00;;;;;;;11.38;7.43;;;;;;;;;;5065122;28;20411;-59
2022/01/01 01:32:25;;;;;;;13.98;7.88;;;;;;;;;;5064717;28;20029;-59
2022/01/01 01:34:51;;;;;;;13.15;7.63;;;;;;;;;;5068475;28;20036;-56
2022/01/01 01:37:16;;;;;;;13.43;6.70;;;;;;;;;;5063312;28;20118;-56
2022/01/01 01:39:41;;;;;;;10.25;6.72;;;;;;;;;;5066583;28;20051;-57
2022/01/01 01:42:07;;;;;;;11.30;6.80;;;;;;;;;;5062971;28;20584;-59
2022/01/01 01:44:41;;;;;;;10.90;6.65;;;;;;;;;;5066595;28;20035;-60
2022/01/01 01:47:14;;;;;;;12.45;7.28;;;;;;;;;;5065675;28;20073;-58
2022/01/01 01:49:39;;;;;;;12.55;6.55;;;;;;;;;;5065814;28;20091;-57
2022/01/01 01:52:05;;;;;;;12.05;6.72;;;;;;;;;;5065606;28;20492;-59
2022/01/01 01:54:32;;;;;;;10.25;6.75;;;;;;;;;;5067679;28;20965;-58
2022/01/01 01:56:58;;;;;;;13.27;6.50;;;;;;;;;;5063795;28;20031;-58
2022/01/01 01:59:25;;;;;;;10.70;6.28;;;;;;;;;;5066179;28;20020;-61
2022/01/01 02:01:51;;;;;;;10.45;6.75;;;;;;;;;;5063530;28;20056;-58
2022/01/01 02:04:17;;;;;;;8.95;6.63;;;;;;;;;;5069089;28;20036;-59
2022/01/01 02:06:43;;;;;;;9.48;6.22;;;;;;;;;;5065981;28;20510;-58
2022/01/01 02:09:11;;;;;;;9.77;6.63;;;;;;;;;;5064112;28;20516;-53
2022/01/01 02:11:37;;;;;;;10.13;6.13;;;;;;;;;;5066171;28;20031;-59
2022/01/01 02:14:09;;;;;;;11.38;6.30;;;;;;;;;;5062697;28;20484;-58
2022/01/01 02:17:17;;;;;;;11.82;6.50;;;;;;;;;;5067136;28;20075;-59
2022/01/01 02:19:28;;;;;;;11.02;6.35;;;;;;;;;;5053934;28;20032;-54
2022/01/01 02:21:56;;;;;;;11.10;5.32;;;;;;;;;;5066289;28;20024;-58
2022/01/01 02:24:22;;;;;;;7.38;5.10;;;;;;;;;;5063348;28;20107;-57
2022/01/01 02:26:47;;;;;;;9.38;5.50;;;;;;;;;;5067214;28;20169;-58
2022/01/01 02:29:13;;;;;;;8.07;5.68;;;;;;;;;;5066779;28;20040;-56
2022/01/01 02:31:39;;;;;;;8.02;5.82;;;;;;;;;;5066462;28;20813;-58
2022/01/01 02:34:07;;;;;;;9.63;5.88;;;;;;;;;;5064485;28;20036;-55
2022/01/01 02:36:41;;;;;;;10.43;5.00;;;;;;;;;;5064793;28;20492;-55
2022/01/01 02:39:18;;;;;;;7.40;5.15;;;;;;;;;;5063725;28;20492;-56
2022/01/01 02:41:45;;;;;;;9.32;5.47;;;;;;;;;;5052338;28;20047;-57
2022/01/01 02:44:10;;;;;;;8.00;5.68;;;;;;;;;;5063220;28;20029;-58
2022/01/01 02:46:36;;;;;;;8.73;5.35;;;;;;;;;;5065825;28;20175;-58
2022/01/01 02:49:03;;;;;;;7.78;5.28;;;;;;;;;;5066351;28;20036;-56
2022/01/01 02:51:29;;;;;;;9.32;5.40;;;;;;;;;;5065124;28;20168;-57
2022/01/01 02:53:54;;;;;;;7.93;5.38;;;;;;;;;;5068454;28;20119;-55
2022/01/01 02:56:20;;;;;;;8.43;5.13;;;;;;;;;;5064486;28;20534;-56
2022/01/01 02:58:45;;;;;;;10.45;5.50;;;;;;;;;;5068804;28;20074;-57
2022/01/01 03:01:10;;;;;;;8.35;5.00;;;;;;;;;;5064798;28;20377;-58
2022/01/01 03:03:36;;;;;;;7.53;4.90;;;;;;;;;;5063817;28;20037;-57
2022/01/01 03:06:03;;;;;;;9.90;5.43;;;;;;;;;;5066043;28;20114;-57
2022/01/01 03:08:29;;;;;;;8.65;5.25;;;;;;;;;;5063543;28;20070;-57
2022/01/01 03:10:54;;;;;;;6.35;5.03;;;;;;;;;;5068014;28;20017;-58
2022/01/01 03:13:20;;;;;;;9.43;4.78;;;;;;;;;;5065832;28;20082;-59
2022/01/01 03:15:45;;;;;;;8.70;4.70;;;;;;;;;;5064146;28;20472;-55
2022/01/01 03:18:11;;;;;;;10.93;4.70;;;;;;;;;;5065976;28;20074;-57
2022/01/01 03:20:36;;;;;;;7.28;4.30;;;;;;;;;;5066999;28;20044;-58
2022/01/01 03:23:03;;;;;;;9.52;4.90;;;;;;;;;;5066459;28;20559;-58
2022/01/01 03:25:29;;;;;;;6.72;4.45;;;;;;;;;;5068334;28;20485;-59
2022/01/01 03:27:54;;;;;;;5.80;4.50;;;;;;;;;;5063725;28;20075;-56
2022/01/01 03:30:20;;;;;;;8.15;4.28;;;;;;;;;;5065723;28;20028;-58
2022/01/01 03:32:45;;;;;;;9.13;4.70;;;;;;;;;;5063241;28;20445;-58
2022/01/01 03:35:11;;;;;;;10.25;4.82;;;;;;;;;;5065166;28;20090;-56
2022/01/01 03:37:36;;;;;;;8.93;4.43;;;;;;;;;;5065303;28;20036;-58
2022/01/01 03:40:02;;;;;;;6.55;4.03;;;;;;;;;;5048873;28;20021;-58
2022/01/01 03:42:28;;;;;;;6.47;4.13;;;;;;;;;;5063805;28;20035;-58
2022/01/01 03:44:53;;;;;;;6.03;4.07;;;;;;;;;;5063970;28;20029;-56
2022/01/01 03:47:18;;;;;;;6.15;4.40;;;;;;;;;;5063854;28;20028;-58
2022/01/01 03:49:44;;;;;;;7.75;4.07;;;;;;;;;;5066218;28;20048;-56
2022/01/01 03:52:09;;;;;;;6.10;3.55;;;;;;;;;;5063155;28;20033;-54
2022/01/01 03:54:35;;;;;;;5.78;3.83;;;;;;;;;;5061950;28;20108;-56
2022/01/01 03:57:00;;;;;;;6.75;4.47;;;;;;;;;;5063966;28;20392;-54
2022/01/01 03:59:26;;;;;;;5.93;4.07;;;;;;;;;;5062507;28;20029;-58
2022/01/01 04:01:52;;;;;;;8.75;4.22;;;;;;;;;;5064251;28;20067;-49
2022/01/01 04:04:17;;;;;;;7.88;4.22;;;;;;;;;;5064053;28;20644;-50
2022/01/01 04:06:42;;;;;;;6.93;4.00;;;;;;;;;;5065271;28;20037;-49
2022/01/01 04:09:08;;;;;;;7.40;4.28;;;;;;;;;;5063849;28;20082;-52
2022/01/01 04:11:33;;;;;;;5.47;4.05;;;;;;;;;;5062974;28;20024;-49
2022/01/01 04:13:59;;;;;;;5.60;3.85;;;;;;;;;;5065204;28;20155;-49
2022/01/01 04:16:24;;;;;;;5.03;3.80;;;;;;;;;;5061834;28;20041;-51
2022/01/01 04:18:49;;;;;;;5.57;4.32;;;;;;;;;;5066756;28;20028;-49
2022/01/01 04:21:15;;;;;;;7.22;3.90;;;;;;;;;;5064863;28;20476;-50
2022/01/01 04:23:43;;;;;;;5.65;4.18;;;;;;;;;;5067319;28;20114;-47
2022/01/01 04:26:10;;;;;;;6.47;4.20;;;;;;;;;;5067294;28;20028;-47
2022/01/01 04:28:36;;;;;;;10.45;4.55;;;;;;;;;;5062601;28;20040;-51
2022/01/01 04:31:02;;;;;;;5.78;4.22;;;;;;;;;;5063328;28;20627;-53
2022/01/01 04:33:27;;;;;;;8.23;4.70;;;;;;;;;;5063605;28;20024;-50
2022/01/01 04:35:53;;;;;;;9.32;4.53;;;;;;;;;;5065245;28;20089;-47
2022/01/01 04:38:38;;;;;;;6.28;4.10;;;;;;;;;;5064703;28;20721;-52
2022/01/01 04:41:05;;;;;;;10.07;5.10;;;;;;;;;;5065348;28;20024;-49
2022/01/01 04:43:30;;;;;;;6.40;4.38;;;;;;;;;;5067784;28;20029;-50
2022/01/01 04:45:56;;;;;;;6.85;4.40;;;;;;;;;;5064583;28;20032;-52
2022/01/01 04:48:21;;;;;;;6.63;4.38;;;;;;;;;;5070911;28;20029;-48
2022/01/01 04:50:47;;;;;;;9.82;4.35;;;;;;;;;;5069404;28;20078;-50
2022/01/01 04:53:16;;;;;;;9.98;4.63;;;;;;;;;;5067740;28;20020;-51
2022/01/01 04:55:41;;;;;;;8.02;4.35;;;;;;;;;;5051844;28;20032;-52
2022/01/01 04:58:07;;;;;;;6.40;4.40;;;;;;;;;;5067358;28;20045;-48
2022/01/01 05:00:32;;;;;;;8.13;4.32;;;;;;;;;;5067678;28;20016;-52
2022/01/01 05:02:58;;;;;;;10.45;4.28;;;;;;;;;;5068224;28;20028;-52
2022/01/01 05:05:24;;;;;;;8.55;5.05;;;;;;;;;;5067016;28;20097;-48
2022/01/01 05:07:50;;;;;;;9.70;5.10;;;;;;;;;;5067460;28;20068;-49
2022/01/01 05:10:16;;;;;;;7.28;4.45;;;;;;;;;;5066792;28;20048;-52
2022/01/01 05:12:41;;;;;;;6.57;4.30;;;;;;;;;;5052693;28;20051;-47
2022/01/01 05:15:07;;;;;;;10.15;5.50;;;;;;;;;;5070210;28;20021;-54
2022/01/01 05:17:32;;;;;;;8.20;5.25;;;;;;;;;;5067031;28;20074;-51
2022/01/01 05:19:58;;;;;;;9.40;5.13;;;;;;;;;;5069510;28;20017;-50
2022/01/01 05:22:23;;;;;;;9.88;5.22;;;;;;;;;;5066874;28;20030;-51
2022/01/01 05:24:48;;;;;;;10.18;6.60;;;;;;;;;;5066640;28;20033;-51
2022/01/01 05:27:14;;;;;;;9.60;6.88;;;;;;;;;;5067586;28;20518;-50
2022/01/01 05:29:39;;;;;;;10.35;6.70;;;;;;;;;;5068455;28;20371;-51
2022/01/01 05:32:05;;;;;;;15.05;7.75;;;;;;;;;;5068705;28;20070;-53
2022/01/01 05:34:30;;;;;;;13.38;7.57;;;;;;;;;;5064823;28;20086;-49
2022/01/01 05:36:56;;;;;;;11.77;7.35;;;;;;;;;;5069590;28;20115;-50
2022/01/01 05:39:21;;;;;;;14.30;7.75;;;;;;;;;;5065578;28;20055;-47
2022/01/01 05:41:46;;;;;;;15.23;8.35;;;;;;;;;;5065973;28;20043;-49
2022/01/01 05:44:12;;;;;;;14.77;8.38;;;;;;;;;;5067174;28;20020;-48
2022/01/01 05:46:37;;;;;;;13.68;8.13;;;;;;;;;;5067452;28;20399;-50
2022/01/01 05:49:02;;;;;;;13.73;8.35;;;;;;;;;;5068309;28;20053;-51
2022/01/01 05:51:28;;;;;;;16.92;8.82;;;;;;;;;;5064460;28;20095;-49
2022/01/01 05:53:53;;;;;;;14.25;8.13;;;;;;;;;;5064003;28;20059;-48
2022/01/01 05:56:19;;;;;;;19.30;10.75;;;;;;;;;;5069456;28;20111;-54
2022/01/01 05:58:44;;;;;;;16.85;9.75;;;;;;;;;;5066731;28;20024;-51
2022/01/01 06:01:09;;;;;;;17.08;8.93;;;;;;;;;;5064545;28;20091;-50
2022/01/01 06:03:35;;;;;;;14.25;8.57;;;;;;;;;;5063073;28;20036;-48
2022/01/01 06:06:00;;;;;;;15.18;8.50;;;;;;;;;;5065206;28;20037;-52
2022/01/01 06:08:28;;;;;;;14.82;8.27;;;;;;;;;;5063990;28;20430;-52
2022/01/01 06:10:54;;;;;;;17.02;8.60;;;;;;;;;;5065115;28;20024;-50
2022/01/01 06:13:20;;;;;;;14.30;8.18;;;;;;;;;;5064668;28;20035;-52
2022/01/01 06:15:45;;;;;;;16.92;8.18;;;;;;;;;;5068194;28;20024;-50
2022/01/01 06:18:11;;;;;;;13.85;8.23;;;;;;;;;;5064525;28;20617;-49
2022/01/01 06:20:37;;;;;;;15.07;7.90;;;;;;;;;;5067015;28;20103;-51
2022/01/01 06:23:04;;;;;;;14.25;7.90;;;;;;;;;;5065343;28;20100;-47
2022/01/01 06:25:30;;;;;;;15.00;7.88;;;;;;;;;;5065738;28;20068;-49
2022/01/01 06:27:55;;;;;;;13.20;8.25;;;;;;;;;;5065607;28;20063;-47
2022/01/01 06:30:20;;;;;;;14.82;8.82;;;;;;;;;;5062986;28;20044;-48
2022/01/01 06:32:49;;;;;;;18.17;8.82;;;;;;;;;;5058930;28;20059;-49
2022/01/01 06:35:14;;;;;;;15.07;9.75;;;;;;;;;;5058278;28;20040;-50
2022/01/01 06:37:40;;;;;;;17.98;9.80;;;;;;;;;;5063208;28;20032;-48
2022/01/01 06:40:06;;;;;;;13.90;8.90;;;;;;;;;;5063930;28;20468;-51
2022/01/01 06:42:31;;;;;;;15.27;8.90;;;;;;;;;;5063623;28;20078;-49
2022/01/01 06:44:56;;;;;;;15.98;9.18;;;;;;;;;;5068927;28;20024;-48
2022/01/01 06:47:22;;;;;;;15.68;8.70;;;;;;;;;;5064281;28;20048;-49
2022/01/01 06:49:47;;;;;;;16.42;9.52;;;;;;;;;;5065368;28;20037;-50
2022/01/01 06:52:12;;;;;;;16.75;9.75;;;;;;;;;;5065893;28;20036;-52
2022/01/01 06:54:38;;;;;;;20.55;10.70;;;;;;;;;;5065679;28;20476;-50
2022/01/01 06:57:04;;;;;;;15.95;9.60;;;;;;;;;;5052460;28;20033;-50
2022/01/01 06:59:29;;;;;;;19.77;10.70;;;;;;;;;;5065710;28;20035;-53
2022/01/01 07:01:54;;;;;;;20.83;11.93;;;;;;;;;;5065908;28;20043;-50
2022/01/01 07:04:20;;;;;;;22.63;11.55;;;;;;;;;;5066411;28;20033;-51
2022/01/01 07:06:45;;;;;;;18.27;11.43;;;;;;;;;;5066359;28;20083;-53
2022/01/01 07:09:12;;;;;;;20.02;11.52;;;;;;;;;;5066357;28;20043;-50
2022/01/01 07:11:37;;;;;;;20.10;10.50;;;;;;;;;;5061747;28;20719;-50
2022/01/01 07:14:03;;;;;;;21.27;11.10;;;;;;;;;;5065325;28;20032;-49
2022/01/01 07:16:28;;;;;;;16.65;10.55;;;;;;;;;;5050266;28;20032;-49
2022/01/01 07:18:54;;;;;;;17.65;11.05;;;;;;;;;;5066843;28;20242;-52
2022/01/01 07:21:19;;;;;;;22.35;12.25;;;;;;;;;;5066503;28;20043;-48
2022/01/01 07:23:44;;;;;;;18.65;10.77;;;;;;;;;;5066886;28;20696;-49
2022/01/01 07:26:10;;;;;;;16.63;10.18;;;;;;;;;;5064970;28;20024;-52
2022/01/01 07:28:35;;;;;;;18.90;11.05;;;;;;;;;;5051145;28;20036;-54
2022/01/01 07:31:00;;;;;;;21.65;10.75;;;;;;;;;;5063408;28;20036;-48
2022/01/01 07:33:26;;;;;;;19.92;11.23;;;;;;;;;;5065195;28;20111;-50
2022/01/01 07:35:53;;;;;;;20.17;11.45;;;;;;;;;;5065643;28;20036;-46
2022/01/01 07:38:18;;;;;;;21.55;11.98;;;;;;;;;;5062094;28;20131;-50
2022/01/01 07:40:44;;;;;;;19.75;10.82;;;;;;;;;;5067248;28;20020;-49
2022/01/01 07:43:12;;;;;;;19.00;11.07;;;;;;;;;;5063424;28;20043;-49
2022/01/01 07:45:38;;;;;;;20.42;12.00;;;;;;;;;;5064315;28;20032;-47
2022/01/01 07:48:04;;;;;;;19.27;11.68;;;;;;;;;;5065972;28;20028;-49
2022/01/01 07:50:30;;;;;;;19.42;11.18;;;;;;;;;;5063410;28;20067;-49
2022/01/01 07:52:55;;;;;;;23.40;11.65;;;;;;;;;;5064905;28;20036;-50
2022/01/01 07:55:20;;;;;;;20.00;10.43;;;;;;;;;;5064334;28;20061;-50
2022/01/01 07:57:46;;;;;;;24.00;11.18;;;;;;;;;;5061133;28;20107;-50
2022/01/01 08:00:11;;;;;;;21.25;11.30;;;;;;;;;;5065173;28;20031;-48
2022/01/01 08:02:44;;;;;;;20.50;11.45;;;;;;;;;;5061967;28;20028;-49
2022/01/01 08:05:11;;;;;;;22.27;10.82;;;;;;;;;;5061465;28;20096;-47
2022/01/01 08:07:37;;;;;;;18.15;10.57;;;;;;;;;;5061800;28;20024;-49
2022/01/01 08:10:04;;;;;;;17.55;10.18;;;;;;;;;;5065323;28;20041;-47
2022/01/01 08:12:29;;;;;;;19.20;11.15;;;;;;;;;;5064278;28;20147;-48
2022/01/01 08:14:56;;;;;;;17.33;10.73;;;;;;;;;;5066256;28;21295;-47
2022/01/01 08:17:23;;;;;;;17.80;9.85;;;;;;;;;;5061868;28;20043;-48
2022/01/01 08:19:48;;;;;;;17.83;10.02;;;;;;;;;;5049818;28;20732;-52
2022/01/01 08:22:14;;;;;;;17.83;9.80;;;;;;;;;;5062150;28;20036;-47
2022/01/01 08:24:40;;;;;;;17.27;9.98;;;;;;;;;;5065743;28;20515;-47
2022/01/01 08:27:06;;;;;;;18.58;10.88;;;;;;;;;;5064432;28;20031;-51
2022/01/01 08:29:32;;;;;;;19.58;10.68;;;;;;;;;;5063029;28;20404;-49
2022/01/01 08:31:57;;;;;;;21.58;11.07;;;;;;;;;;5058322;28;20028;-52
2022/01/01 08:34:23;;;;;;;19.17;11.40;;;;;;;;;;5057128;28;20048;-49
2022/01/01 08:36:49;;;;;;;16.58;10.75;;;;;;;;;;5056939;28;21622;-51
2022/01/01 08:39:15;;;;;;;16.27;10.35;;;;;;;;;;5057374;28;20062;-47
2022/01/01 08:41:42;;;;;;;18.83;11.50;;;;;;;;;;5055868;28;20084;-53
2022/01/01 08:44:07;;;;;;;20.58;11.40;;;;;;;;;;5059029;28;20566;-52
2022/01/01 08:46:33;;;;;;;19.08;10.90;;;;;;;;;;5022789;28;1105584;-48
2022/01/01 08:48:59;;;;;;;18.30;10.80;;;;;;;;;;5063425;28;20059;-49
2022/01/01 08:51:24;;;;;;;17.70;11.25;;;;;;;;;;5047388;28;20115;-52
2022/01/01 08:53:50;;;;;;;20.52;10.48;;;;;;;;;;5062752;28;20603;-50
2022/01/01 08:56:15;;;;;;;20.73;11.38;;;;;;;;;;5064037;28;20026;-50
2022/01/01 08:58:41;;;;;;;19.60;11.43;;;;;;;;;;5062875;28;20478;-51
2022/01/01 09:01:08;;;;;;;22.27;12.43;;;;;;;;;;5062960;28;20434;-49
2022/01/01 09:03:35;;;;;;;21.63;11.77;;;;;;;;;;5063075;28;20485;-51
2022/01/01 09:06:01;;;;;;;17.75;10.52;;;;;;;;;;5065040;28;20025;-49
2022/01/01 09:08:27;;;;;;;19.45;11.77;;;;;;;;;;5063719;28;20028;-52
2022/01/01 09:10:52;;;;;;;19.20;11.38;;;;;;;;;;5066267;28;20024;-49
2022/01/01 09:13:18;;;;;;;20.73;11.20;;;;;;;;;;5062535;28;20041;-50
2022/01/01 09:15:43;;;;;;;17.67;10.68;;;;;;;;;;5063297;28;20029;-52
2022/01/01 09:18:08;;;;;;;20.27;11.18;;;;;;;;;;5063562;28;20506;-49
2022/01/01 09:20:34;;;;;;;17.05;10.85;;;;;;;;;;5063079;28;20025;-49
2022/01/01 09:22:59;;;;;;;18.45;10.90;;;;;;;;;;5063909;28;20461;-48
2022/01/01 09:25:24;;;;;;;20.67;11.27;;;;;;;;;;5064101;28;20028;-51
2022/01/01 09:27:50;;;;;;;19.23;11.15;;;;;;;;;;5065961;28;20476;-48
2022/01/01 09:30:15;;;;;;;16.95;10.30;;;;;;;;;;5066067;28;20142;-49
2022/01/01 09:32:40;;;;;;;19.33;11.23;;;;;;;;;;5060743;28;20043;-53
2022/01/01 09:35:07;;;;;;;18.73;10.70;;;;;;;;;;5068114;28;20575;-49
2022/01/01 09:37:33;;;;;;;17.70;11.45;;;;;;;;;;5065232;28;20104;-48
2022/01/01 09:40:02;;;;;;;18.27;10.95;;;;;;;;;;5068730;28;20119;-48
2022/01/01 09:42:29;;;;;;;20.05;10.95;;;;;;;;;;5066534;28;20098;-47
2022/01/01 09:44:57;;;;;;;18.92;10.38;;;;;;;;;;5050397;28;20024;-52
2022/01/01 09:47:22;;;;;;;16.40;10.75;;;;;;;;;;5068624;28;20033;-51
2022/01/01 09:49:48;;;;;;;19.92;10.15;;;;;;;;;;5067695;28;20385;-53
2022/01/01 09:52:14;;;;;;;15.60;9.90;;;;;;;;;;5066811;28;20079;-48
2022/01/01 09:54:40;;;;;;;15.82;9.55;;;;;;;;;;5067533;28;20036;-51
2022/01/01 09:57:06;;;;;;;16.67;9.93;;;;;;;;;;5068113;28;20078;-51
2022/01/01 09:59:31;;;;;;;18.10;10.18;;;;;;;;;;5068405;28;20020;-49
2022/01/01 10:01:57;;;;;;;21.75;10.43;;;;;;;;;;5068607;28;20500;-49
2022/01/01 10:04:22;;;;;;;15.20;9.63;;;;;;;;;;5068758;28;20059;-48
2022/01/01 10:07:03;;;;;;;16.67;10.95;;;;;;;;;;5070014;28;20036;-49
2022/01/01 10:09:33;;;;;;;16.58;10.45;;;;;;;;;;5049304;28;20039;-48
2022/01/01 10:11:59;;;;;;;16.65;10.18;;;;;;;;;;5069335;28;20086;-51
2022/01/01 10:14:46;;;;;;;15.35;10.27;;;;;;;;;;5049460;28;20040;-50
2022/01/01 10:17:22;;;;;;;16.70;9.98;;;;;;;;;;5068731;28;20090;-49
2022/01/01 10:19:50;;;;;;;14.90;9.98;;;;;;;;;;5068574;28;20024;-49
2022/01/01 10:22:20;;;;;;;18.23;9.38;;;;;;;;;;5066601;28;20461;-51
2022/01/01 10:27:42;;;;;;;17.88;9.55;;;;;;;;;;5068187;28;20038;-47
2022/01/01 10:30:09;;;;;;;16.40;9.95;;;;;;;;;;5065837;28;20040;-50
2022/01/01 10:32:35;;;;;;;16.50;10.02;;;;;;;;;;5062849;28;20036;-51
2022/01/01 10:35:02;;;;;;;16.85;9.38;;;;;;;;;;5062551;28;20035;-53
2022/01/01 10:37:29;;;;;;;16.50;9.75;;;;;;;;;;5069092;28;20032;-51
2022/01/01 10:39:55;;;;;;;19.65;9.77;;;;;;;;;;5066102;28;20020;-52
2022/01/01 10:42:21;;;;;;;17.23;10.40;;;;;;;;;;5066441;28;20039;-48
2022/01/01 10:44:52;;;;;;;18.23;10.75;;;;;;;;;;5048663;28;20412;-50
2022/01/01 10:47:27;;;;;;;17.63;10.35;;;;;;;;;;5065115;28;20530;-48
2022/01/01 10:52:36;;;;;;;16.42;10.25;;;;;;;;;;5065414;28;20063;-50
2022/01/01 10:55:05;;;;;;;16.33;9.65;;;;;;;;;;5065109;28;20067;-50
2022/01/01 10:57:33;;;;;;;16.35;10.05;;;;;;;;;;5065253;28;20035;-50
2022/01/01 11:00:20;;;;;;;14.93;9.18;;;;;;;;;;5064486;28;20029;-49
2022/01/01 11:03:04;;;;;;;15.48;9.50;;;;;;;;;;5069769;28;20119;-52
2022/01/01 11:05:31;;;;;;;16.02;10.07;;;;;;;;;;5063860;28;20036;-49
2022/01/01 11:07:57;;;;;;;18.45;10.25;;;;;;;;;;5066433;28;20039;-53
2022/01/01 11:10:24;;;;;;;18.52;10.40;;;;;;;;;;5065904;28;20037;-49
2022/01/01 11:12:50;;;;;;;16.52;9.75;;;;;;;;;;5064294;28;20039;-49
2022/01/01 11:15:16;;;;;;;15.70;10.02;;;;;;;;;;5067412;28;20028;-51
2022/01/01 11:17:46;;;;;;;14.65;9.80;;;;;;;;;;5067384;28;20387;-54
2022/01/01 11:20:12;;;;;;;18.10;10.80;;;;;;;;;;5065979;28;20033;-51
2022/01/01 11:22:38;;;;;;;16.08;10.65;;;;;;;;;;5065009;28;20032;-50
2022/01/01 11:25:04;;;;;;;16.67;10.02;;;;;;;;;;5065576;28;20028;-52
2022/01/01 11:27:31;;;;;;;19.75;10.13;;;;;;;;;;5068076;28;20100;-52
2022/01/01 11:29:59;;;;;;;17.52;9.88;;;;;;;;;;5064605;28;20109;-50
2022/01/01 11:32:53;;;;;;;16.65;9.82;;;;;;;;;;5065364;28;20024;-49
2022/01/01 11:35:27;;;;;;;20.70;10.90;;;;;;;;;;5051025;28;20109;-49
2022/01/01 11:38:01;;;;;;;17.20;9.77;;;;;;;;;;5067771;28;20514;-50
2022/01/01 11:40:33;;;;;;;18.90;10.48;;;;;;;;;;5069015;28;20077;-51
2022/01/01 11:42:58;;;;;;;17.05;10.02;;;;;;;;;;5063808;28;20032;-53
2022/01/01 11:45:47;;;;;;;18.08;9.68;;;;;;;;;;5064851;28;20555;-48
2022/01/01 11:48:32;;;;;;;16.00;10.90;;;;;;;;;;5066299;28;20388;-50
2022/01/01 11:51:19;;;;;;;16.85;9.88;;;;;;;;;;5063723;28;20024;-54
2022/01/01 11:54:14;;;;;;;18.75;10.38;;;;;;;;;;5066490;28;20032;-48
2022/01/01 11:56:49;;;;;;;16.00;9.90;;;;;;;;;;5063334;28;20028;-52
2022/01/01 11:59:18;;;;;;;18.30;10.77;;;;;;;;;;5065829;28;20024;-52
2022/01/01 12:01:43;;;;;;;18.85;10.63;;;;;;;;;;5064401;28;20032;-52
2022/01/01 12:04:31;;;;;;;14.35;9.60;;;;;;;;;;5065561;28;20369;-48
2022/01/01 12:06:59;;;;;;;14.75;9.52;;;;;;;;;;5068083;28;20392;-51
2022/01/01 12:09:25;;;;;;;16.58;10.05;;;;;;;;;;5062819;28;20031;-52
2022/01/01 12:11:55;;;;;;;17.83;10.20;;;;;;;;;;5062356;28;20472;-47
2022/01/01 12:14:31;;;;;;;16.95;9.82;;;;;;;;;;5064337;28;20123;-52
2022/01/01 12:16:56;;;;;;;16.40;10.27;;;;;;;;;;5064853;28;20032;-52
2022/01/01 12:19:25;;;;;;;19.15;11.48;;;;;;;;;;5065212;28;20491;-48
2022/01/01 12:22:07;;;;;;;23.08;10.38;;;;;;;;;;5063886;28;20028;-51
2022/01/01 12:24:38;;;;;;;18.05;10.40;;;;;;;;;;5066349;28;20074;-49
2022/01/01 12:27:14;;;;;;;20.25;10.80;;;;;;;;;;5064661;28;20036;-52
2022/01/01 12:29:40;;;;;;;17.15;10.65;;;;;;;;;;5064312;28;20032;-52
2022/01/01 12:32:08;;;;;;;15.73;10.27;;;;;;;;;;5062817;28;20033;-51
2022/01/01 12:34:36;;;;;;;18.25;10.98;;;;;;;;;;5059019;28;20504;-47
2022/01/01 12:37:06;;;;;;;17.58;10.50;;;;;;;;;;5060925;28;20031;-51
2022/01/01 12:40:02;;;;;;;20.30;11.00;;;;;;;;;;5059118;28;20030;-52
2022/01/01 12:42:30;;;;;;;18.85;11.40;;;;;;;;;;5062496;28;20516;-50
2022/01/01 12:45:07;;;;;;;19.60;12.15;;;;;;;;;;5061275;28;20064;-48
2022/01/01 12:47:33;;;;;;;17.83;11.65;;;;;;;;;;5046519;28;20052;-50
2022/01/01 12:50:04;;;;;;;19.85;11.43;;;;;;;;;;5061419;28;20082;-48
2022/01/01 12:52:30;;;;;;;22.85;11.32;;;;;;;;;;5058206;28;20025;-52
2022/01/01 12:55:00;;;;;;;16.50;10.13;;;;;;;;;;5061286;28;20039;-51
2022/01/01 12:57:27;;;;;;;20.83;11.02;;;;;;;;;;5062751;28;20025;-49
2022/01/01 12:59:56;;;;;;;18.17;11.15;;;;;;;;;;5063122;28;20551;-49
2022/01/01 13:02:23;;;;;;;20.60;11.80;;;;;;;;;;5064447;28;20025;-53
2022/01/01 13:04:49;;;;;;;20.42;11.35;;;;;;;;;;5064740;28;20929;-52
2022/01/01 13:07:21;;;;;;;19.52;11.73;;;;;;;;;;5062384;28;20027;-46
2022/01/01 13:09:46;;;;;;;18.73;10.70;;;;;;;;;;5068743;28;20029;-50
2022/01/01 13:12:17;;;;;;;16.75;10.40;;;;;;;;;;5069125;28;20032;-50
2022/01/01 13:14:42;;;;;;;16.45;10.18;;;;;;;;;;5070710;28;20028;-48
2022/01/01 13:17:08;;;;;;;17.52;11.05;;;;;;;;;;5069304;28;20779;-47
2022/01/01 13:19:34;;;;;;;17.67;10.73;;;;;;;;;;5068211;28;20032;-51
2022/01/01 13:22:01;;;;;;;15.02;10.13;;;;;;;;;;5069669;28;20032;-50
2022/01/01 13:24:30;;;;;;;17.38;10.50;;;;;;;;;;5066896;28;20039;-52
2022/01/01 13:26:57;;;;;;;20.35;10.65;;;;;;;;;;5071518;28;20033;-51
2022/01/01 13:29:24;;;;;;;18.92;10.70;;;;;;;;;;5067294;28;20503;-51
2022/01/01 13:31:53;;;;;;;15.88;10.13;;;;;;;;;;5068004;28;20085;-51
2022/01/01 13:34:19;;;;;;;17.10;10.25;;;;;;;;;;5068360;28;20739;-50
2022/01/01 13:36:46;;;;;;;16.25;10.10;;;;;;;;;;5066743;28;20028;-49
2022/01/01 13:39:25;;;;;;;15.68;9.73;;;;;;;;;;5053494;28;20667;-47
2022/01/01 13:41:58;;;;;;;16.00;9.38;;;;;;;;;;5066163;28;20376;-48
2022/01/01 13:44:24;;;;;;;13.25;9.13;;;;;;;;;;5053661;28;20056;-50
2022/01/01 13:47:09;;;;;;;16.80;9.63;;;;;;;;;;5065599;28;20109;-51
2022/01/01 13:49:42;;;;;;;18.33;9.68;;;;;;;;;;5065407;28;20068;-47
2022/01/01 13:52:08;;;;;;;13.65;8.85;;;;;;;;;;5067538;28;20032;-49
2022/01/01 13:54:38;;;;;;;16.17;8.93;;;;;;;;;;5069395;28;20081;-51
2022/01/01 13:57:08;;;;;;;16.17;9.43;;;;;;;;;;5069049;28;20032;-52
2022/01/01 13:59:39;;;;;;;14.48;9.20;;;;;;;;;;5068943;28;20418;-52
2022/01/01 14:02:10;;;;;;;13.57;8.35;;;;;;;;;;5067980;28;20035;-54
2022/01/01 14:04:40;;;;;;;13.38;8.70;;;;;;;;;;5066569;28;20740;-53
2022/01/01 14:07:17;;;;;;;13.80;8.43;;;;;;;;;;5066172;28;20047;-49
2022/01/01 14:10:03;;;;;;;16.77;8.15;;;;;;;;;;5053908;28;20040;-47
2022/01/01 14:12:33;;;;;;;11.60;7.72;;;;;;;;;;5067040;28;20166;-49
2022/01/01 14:15:03;;;;;;;12.95;8.30;;;;;;;;;;5050325;28;20071;-48
2022/01/01 14:18:09;;;;;;;15.43;8.38;;;;;;;;;;5070150;28;20106;-49
2022/01/01 14:20:37;;;;;;;12.30;8.13;;;;;;;;;;5066176;28;20082;-48
2022/01/01 14:23:06;;;;;;;12.73;8.13;;;;;;;;;;5069517;28;20565;-50
2022/01/01 14:25:33;;;;;;;11.55;7.25;;;;;;;;;;5067241;28;20099;-50
2022/01/01 14:28:04;;;;;;;11.57;7.38;;;;;;;;;;5066280;28;20060;-51
2022/01/01 14:30:31;;;;;;;12.82;7.40;;;;;;;;;;5066987;28;20029;-50
2022/01/01 14:33:04;;;;;;;11.65;7.60;;;;;;;;;;5063067;28;20026;-51
2022/01/01 14:35:30;;;;;;;11.95;8.23;;;;;;;;;;5070879;28;20035;-52